sensor_id;sensor_type;location;lat;lon;timestamp;P1;durP1;ratioP1;P2;durP2;ratioP2
25982;SDS011;13773;48.868;10.730;2022-12-22T00:01:09;63.70;;;33.53;;
25982;SDS011;13773;48.868;10.730;2022-12-22T00:03:55;57.50;;;32.07;;
25982;SDS011;13773;48.868;10.730;2022-12-22T00:06:39;56.43;;;31.00;;
25982;SDS011;13773;48.868;10.730;2022-12-22T00:09:23;54.60;;;30.93;;
25982;SDS011;13773;48.868;10.730;2022-12-22T00:12:08;61.20;;;32.37;;
25982;SDS011;13773;48.868;10.730;2022-12-22T00:14:54;59.27;;;32.17;;
25982;SDS011;13773;48.868;10.730;2022-12-22T00:17:38;59.60;;;30.97;;
25982;SDS011;13773;48.868;10.730;2022-12-22T00:20:23;59.07;;;31.70;;
25982;SDS011;13773;48.868;10.730;2022-12-22T00:23:08;61.50;;;33.07;;
25982;SDS011;13773;48.868;10.730;2022-12-22T00:25:52;62.67;;;32.13;;
25982;SDS011;13773;48.868;10.730;2022-12-22T00:28:36;57.13;;;30.73;;
25982;SDS011;13773;48.868;10.730;2022-12-22T00:31:21;56.30;;;30.43;;
25982;SDS011;13773;48.868;10.730;2022-12-22T00:34:20;56.73;;;30.47;;
25982;SDS011;13773;48.868;10.730;2022-12-22T00:37:32;52.10;;;29.67;;
25982;SDS011;13773;48.868;10.730;2022-12-22T00:40:27;60.50;;;30.13;;
25982;SDS011;13773;48.868;10.730;2022-12-22T00:43:13;57.87;;;30.17;;
25982;SDS011;13773;48.868;10.730;2022-12-22T00:46:00;58.03;;;29.73;;
25982;SDS011;13773;48.868;10.730;2022-12-22T00:48:48;60.43;;;30.37;;
25982;SDS011;13773;48.868;10.730;2022-12-22T00:51:33;61.33;;;32.10;;
25982;SDS011;13773;48.868;10.730;2022-12-22T00:54:30;60.60;;;30.83;;
25982;SDS011;13773;48.868;10.730;2022-12-22T00:57:17;60.30;;;30.40;;
25982;SDS011;13773;48.868;10.730;2022-12-22T01:00:37;57.93;;;30.77;;
25982;SDS011;13773;48.868;10.730;2022-12-22T01:03:20;57.30;;;30.53;;
25982;SDS011;13773;48.868;10.730;2022-12-22T01:06:21;56.13;;;29.63;;
25982;SDS011;13773;48.868;10.730;2022-12-22T01:09:05;61.53;;;32.70;;
25982;SDS011;13773;48.868;10.730;2022-12-22T01:11:52;62.07;;;32.10;;
25982;SDS011;13773;48.868;10.730;2022-12-22T01:14:43;59.97;;;31.83;;
25982;SDS011;13773;48.868;10.730;2022-12-22T01:17:33;62.30;;;31.43;;
25982;SDS011;13773;48.868;10.730;2022-12-22T01:20:42;56.67;;;31.97;;
25982;SDS011;13773;48.868;10.730;2022-12-22T01:23:27;59.00;;;31.90;;
25982;SDS011;13773;48.868;10.730;2022-12-22T01:26:11;53.87;;;30.90;;
25982;SDS011;13773;48.868;10.730;2022-12-22T01:29:01;57.17;;;31.77;;
25982;SDS011;13773;48.868;10.730;2022-12-22T01:31:48;59.07;;;32.67;;
25982;SDS011;13773;48.868;10.730;2022-12-22T01:34:38;57.43;;;32.07;;
25982;SDS011;13773;48.868;10.730;2022-12-22T01:37:24;63.13;;;33.20;;
25982;SDS011;13773;48.868;10.730;2022-12-22T01:40:12;55.03;;;31.10;;
25982;SDS011;13773;48.868;10.730;2022-12-22T01:46:40;49.40;;;30.83;;
25982;SDS011;13773;48.868;10.730;2022-12-22T01:49:31;52.20;;;31.87;;
25982;SDS011;13773;48.868;10.730;2022-12-22T01:52:32;51.83;;;31.20;;
25982;SDS011;13773;48.868;10.730;2022-12-22T01:55:26;48.33;;;30.90;;
25982;SDS011;13773;48.868;10.730;2022-12-22T01:59:02;48.23;;;28.80;;
25982;SDS011;13773;48.868;10.730;2022-12-22T02:01:51;53.00;;;32.97;;
25982;SDS011;13773;48.868;10.730;2022-12-22T02:04:36;44.10;;;30.37;;
25982;SDS011;13773;48.868;10.730;2022-12-22T02:07:30;46.03;;;29.67;;
25982;SDS011;13773;48.868;10.730;2022-12-22T02:27:23;44.13;;;27.53;;
25982;SDS011;13773;48.868;10.730;2022-12-22T02:30:09;41.20;;;27.33;;
25982;SDS011;13773;48.868;10.730;2022-12-22T02:32:54;40.20;;;26.17;;
25982;SDS011;13773;48.868;10.730;2022-12-22T02:35:45;38.37;;;26.10;;
25982;SDS011;13773;48.868;10.730;2022-12-22T02:42:12;36.47;;;24.73;;
25982;SDS011;13773;48.868;10.730;2022-12-22T02:45:26;36.33;;;24.00;;
25982;SDS011;13773;48.868;10.730;2022-12-22T02:48:47;37.30;;;24.30;;
25982;SDS011;13773;48.868;10.730;2022-12-22T02:55:13;34.60;;;23.40;;
25982;SDS011;13773;48.868;10.730;2022-12-22T03:02:00;40.27;;;23.93;;
25982;SDS011;13773;48.868;10.730;2022-12-22T03:04:46;33.13;;;23.13;;
25982;SDS011;13773;48.868;10.730;2022-12-22T03:07:59;36.07;;;23.27;;
25982;SDS011;13773;48.868;10.730;2022-12-22T03:10:43;33.67;;;23.13;;
25982;SDS011;13773;48.868;10.730;2022-12-22T03:13:27;37.63;;;24.67;;
25982;SDS011;13773;48.868;10.730;2022-12-22T03:16:11;34.90;;;22.67;;
25982;SDS011;13773;48.868;10.730;2022-12-22T03:18:55;33.00;;;22.77;;
25982;SDS011;13773;48.868;10.730;2022-12-22T03:21:39;32.67;;;23.03;;
25982;SDS011;13773;48.868;10.730;2022-12-22T03:24:23;32.33;;;22.87;;
25982;SDS011;13773;48.868;10.730;2022-12-22T03:27:07;31.77;;;22.30;;
25982;SDS011;13773;48.868;10.730;2022-12-22T03:29:33;33.07;;;22.83;;
25982;SDS011;13773;48.868;10.730;2022-12-22T03:31:58;30.00;;;22.13;;
25982;SDS011;13773;48.868;10.730;2022-12-22T03:34:24;30.20;;;21.73;;
25982;SDS011;13773;48.868;10.730;2022-12-22T03:36:50;28.93;;;20.90;;
25982;SDS011;13773;48.868;10.730;2022-12-22T03:39:15;28.27;;;20.30;;
25982;SDS011;13773;48.868;10.730;2022-12-22T03:41:41;30.67;;;20.67;;
25982;SDS011;13773;48.868;10.730;2022-12-22T03:44:25;29.60;;;20.50;;
25982;SDS011;13773;48.868;10.730;2022-12-22T03:47:09;29.93;;;19.97;;
25982;SDS011;13773;48.868;10.730;2022-12-22T03:49:35;26.57;;;19.27;;
25982;SDS011;13773;48.868;10.730;2022-12-22T03:52:00;27.47;;;20.07;;
25982;SDS011;13773;48.868;10.730;2022-12-22T03:54:26;26.60;;;19.23;;
25982;SDS011;13773;48.868;10.730;2022-12-22T03:57:00;29.13;;;19.37;;
25982;SDS011;13773;48.868;10.730;2022-12-22T03:59:35;25.73;;;18.40;;
25982;SDS011;13773;48.868;10.730;2022-12-22T04:02:01;25.77;;;19.33;;
25982;SDS011;13773;48.868;10.730;2022-12-22T04:04:26;27.30;;;18.87;;
25982;SDS011;13773;48.868;10.730;2022-12-22T04:06:52;25.07;;;18.10;;
25982;SDS011;13773;48.868;10.730;2022-12-22T04:09:18;25.80;;;17.63;;
25982;SDS011;13773;48.868;10.730;2022-12-22T04:11:46;24.40;;;17.53;;
25982;SDS011;13773;48.868;10.730;2022-12-22T04:14:30;25.70;;;18.10;;
25982;SDS011;13773;48.868;10.730;2022-12-22T04:16:55;25.03;;;18.27;;
25982;SDS011;13773;48.868;10.730;2022-12-22T04:19:21;26.33;;;18.23;;
25982;SDS011;13773;48.868;10.730;2022-12-22T04:21:49;23.73;;;18.07;;
25982;SDS011;13773;48.868;10.730;2022-12-22T04:24:14;23.20;;;17.90;;
25982;SDS011;13773;48.868;10.730;2022-12-22T04:26:40;22.53;;;17.57;;
25982;SDS011;13773;48.868;10.730;2022-12-22T04:29:06;22.90;;;16.63;;
25982;SDS011;13773;48.868;10.730;2022-12-22T04:34:40;22.53;;;16.37;;
25982;SDS011;13773;48.868;10.730;2022-12-22T04:37:06;20.77;;;16.30;;
25982;SDS011;13773;48.868;10.730;2022-12-22T04:39:32;21.07;;;15.30;;
25982;SDS011;13773;48.868;10.730;2022-12-22T04:41:57;20.43;;;16.90;;
25982;SDS011;13773;48.868;10.730;2022-12-22T04:44:24;21.50;;;15.67;;
25982;SDS011;13773;48.868;10.730;2022-12-22T04:46:50;22.67;;;16.43;;
25982;SDS011;13773;48.868;10.730;2022-12-22T04:49:18;18.10;;;15.00;;
25982;SDS011;13773;48.868;10.730;2022-12-22T04:51:55;19.77;;;15.30;;
25982;SDS011;13773;48.868;10.730;2022-12-22T04:54:33;17.50;;;13.37;;
25982;SDS011;13773;48.868;10.730;2022-12-22T05:00:56;19.13;;;14.47;;
25982;SDS011;13773;48.868;10.730;2022-12-22T05:03:22;19.30;;;14.07;;
25982;SDS011;13773;48.868;10.730;2022-12-22T05:05:54;17.73;;;14.07;;
25982;SDS011;13773;48.868;10.730;2022-12-22T05:08:20;17.93;;;14.27;;
25982;SDS011;13773;48.868;10.730;2022-12-22T05:10:45;16.83;;;12.93;;
25982;SDS011;13773;48.868;10.730;2022-12-22T05:13:11;17.03;;;13.57;;
25982;SDS011;13773;48.868;10.730;2022-12-22T05:15:37;16.40;;;13.17;;
25982;SDS011;13773;48.868;10.730;2022-12-22T05:18:02;16.93;;;13.20;;
25982;SDS011;13773;48.868;10.730;2022-12-22T05:20:28;15.53;;;12.67;;
25982;SDS011;13773;48.868;10.730;2022-12-22T05:22:59;15.47;;;12.57;;
25982;SDS011;13773;48.868;10.730;2022-12-22T05:25:25;13.40;;;11.13;;
25982;SDS011;13773;48.868;10.730;2022-12-22T05:27:51;15.97;;;11.63;;
25982;SDS011;13773;48.868;10.730;2022-12-22T05:33:28;13.97;;;11.30;;
25982;SDS011;13773;48.868;10.730;2022-12-22T05:35:53;14.03;;;11.20;;
25982;SDS011;13773;48.868;10.730;2022-12-22T05:38:19;14.03;;;11.63;;
25982;SDS011;13773;48.868;10.730;2022-12-22T05:40:45;12.30;;;10.50;;
25982;SDS011;13773;48.868;10.730;2022-12-22T05:43:10;12.13;;;10.83;;
25982;SDS011;13773;48.868;10.730;2022-12-22T05:48:25;11.00;;;9.67;;
25982;SDS011;13773;48.868;10.730;2022-12-22T05:50:51;13.97;;;10.57;;
25982;SDS011;13773;48.868;10.730;2022-12-22T05:53:16;10.97;;;9.67;;
25982;SDS011;13773;48.868;10.730;2022-12-22T05:55:42;11.40;;;10.07;;
25982;SDS011;13773;48.868;10.730;2022-12-22T05:58:07;12.63;;;10.03;;
25982;SDS011;13773;48.868;10.730;2022-12-22T06:03:37;9.40;;;7.70;;
25982;SDS011;13773;48.868;10.730;2022-12-22T06:06:03;9.67;;;8.67;;
25982;SDS011;13773;48.868;10.730;2022-12-22T06:08:29;10.77;;;8.37;;
25982;SDS011;13773;48.868;10.730;2022-12-22T06:10:58;9.40;;;8.33;;
25982;SDS011;13773;48.868;10.730;2022-12-22T06:13:24;10.17;;;8.40;;
25982;SDS011;13773;48.868;10.730;2022-12-22T06:15:50;11.30;;;7.77;;
25982;SDS011;13773;48.868;10.730;2022-12-22T06:18:15;8.43;;;7.33;;
25982;SDS011;13773;48.868;10.730;2022-12-22T06:20:43;10.10;;;7.93;;
25982;SDS011;13773;48.868;10.730;2022-12-22T06:23:10;9.03;;;7.07;;
25982;SDS011;13773;48.868;10.730;2022-12-22T06:25:36;6.77;;;6.07;;
25982;SDS011;13773;48.868;10.730;2022-12-22T06:28:01;6.70;;;5.23;;
25982;SDS011;13773;48.868;10.730;2022-12-22T06:30:27;6.97;;;5.77;;
25982;SDS011;13773;48.868;10.730;2022-12-22T06:32:53;5.90;;;5.23;;
25982;SDS011;13773;48.868;10.730;2022-12-22T06:35:18;8.33;;;5.10;;
25982;SDS011;13773;48.868;10.730;2022-12-22T06:37:44;6.00;;;4.37;;
25982;SDS011;13773;48.868;10.730;2022-12-22T06:40:10;5.53;;;4.90;;
25982;SDS011;13773;48.868;10.730;2022-12-22T06:42:36;5.97;;;4.70;;
25982;SDS011;13773;48.868;10.730;2022-12-22T06:45:38;5.97;;;5.37;;
25982;SDS011;13773;48.868;10.730;2022-12-22T06:48:05;6.30;;;4.57;;
25982;SDS011;13773;48.868;10.730;2022-12-22T06:50:31;5.10;;;4.20;;
25982;SDS011;13773;48.868;10.730;2022-12-22T06:52:57;5.57;;;4.50;;
25982;SDS011;13773;48.868;10.730;2022-12-22T06:55:23;6.03;;;4.67;;
25982;SDS011;13773;48.868;10.730;2022-12-22T06:57:49;5.80;;;4.60;;
25982;SDS011;13773;48.868;10.730;2022-12-22T07:00:15;5.97;;;4.40;;
25982;SDS011;13773;48.868;10.730;2022-12-22T07:02:41;6.60;;;4.23;;
25982;SDS011;13773;48.868;10.730;2022-12-22T07:05:06;6.13;;;4.30;;
25982;SDS011;13773;48.868;10.730;2022-12-22T07:07:32;4.87;;;3.60;;
25982;SDS011;13773;48.868;10.730;2022-12-22T07:09:58;4.07;;;3.67;;
25982;SDS011;13773;48.868;10.730;2022-12-22T07:12:24;5.40;;;3.43;;
25982;SDS011;13773;48.868;10.730;2022-12-22T07:14:49;7.87;;;3.70;;
25982;SDS011;13773;48.868;10.730;2022-12-22T07:17:15;3.77;;;3.30;;
25982;SDS011;13773;48.868;10.730;2022-12-22T07:19:41;4.53;;;2.97;;
25982;SDS011;13773;48.868;10.730;2022-12-22T07:22:06;3.63;;;3.17;;
25982;SDS011;13773;48.868;10.730;2022-12-22T07:24:32;4.57;;;3.70;;
25982;SDS011;13773;48.868;10.730;2022-12-22T07:26:58;4.03;;;3.20;;
25982;SDS011;13773;48.868;10.730;2022-12-22T07:29:24;4.67;;;3.77;;
25982;SDS011;13773;48.868;10.730;2022-12-22T07:31:49;5.13;;;3.50;;
25982;SDS011;13773;48.868;10.730;2022-12-22T07:34:15;5.60;;;3.30;;
25982;SDS011;13773;48.868;10.730;2022-12-22T07:36:41;4.07;;;3.73;;
25982;SDS011;13773;48.868;10.730;2022-12-22T07:39:07;5.83;;;3.30;;
25982;SDS011;13773;48.868;10.730;2022-12-22T07:41:33;4.17;;;3.27;;
25982;SDS011;13773;48.868;10.730;2022-12-22T07:44:17;4.27;;;3.20;;
25982;SDS011;13773;48.868;10.730;2022-12-22T07:46:43;3.63;;;2.87;;
25982;SDS011;13773;48.868;10.730;2022-12-22T07:49:09;4.60;;;2.97;;
25982;SDS011;13773;48.868;10.730;2022-12-22T07:51:54;4.10;;;2.90;;
25982;SDS011;13773;48.868;10.730;2022-12-22T07:54:22;4.07;;;2.47;;
25982;SDS011;13773;48.868;10.730;2022-12-22T07:56:47;4.63;;;2.50;;
25982;SDS011;13773;48.868;10.730;2022-12-22T07:59:14;4.17;;;2.40;;
25982;SDS011;13773;48.868;10.730;2022-12-22T08:01:40;6.30;;;3.00;;
25982;SDS011;13773;48.868;10.730;2022-12-22T08:04:07;3.97;;;2.60;;
25982;SDS011;13773;48.868;10.730;2022-12-22T08:06:34;4.30;;;3.00;;
25982;SDS011;13773;48.868;10.730;2022-12-22T08:09:01;3.37;;;2.57;;
25982;SDS011;13773;48.868;10.730;2022-12-22T08:11:27;3.90;;;2.43;;
25982;SDS011;13773;48.868;10.730;2022-12-22T08:13:53;5.10;;;2.70;;
25982;SDS011;13773;48.868;10.730;2022-12-22T08:16:19;4.33;;;2.60;;
25982;SDS011;13773;48.868;10.730;2022-12-22T08:18:46;3.57;;;2.40;;
25982;SDS011;13773;48.868;10.730;2022-12-22T08:21:12;5.90;;;2.53;;
25982;SDS011;13773;48.868;10.730;2022-12-22T08:23:37;4.57;;;2.47;;
25982;SDS011;13773;48.868;10.730;2022-12-22T08:29:02;4.23;;;2.23;;
25982;SDS011;13773;48.868;10.730;2022-12-22T08:31:32;3.17;;;1.77;;
25982;SDS011;13773;48.868;10.730;2022-12-22T08:33:58;3.43;;;2.10;;
25982;SDS011;13773;48.868;10.730;2022-12-22T08:36:27;3.47;;;1.80;;
25982;SDS011;13773;48.868;10.730;2022-12-22T08:38:54;3.37;;;1.90;;
25982;SDS011;13773;48.868;10.730;2022-12-22T08:41:20;4.37;;;2.17;;
25982;SDS011;13773;48.868;10.730;2022-12-22T08:44:06;3.87;;;1.70;;
25982;SDS011;13773;48.868;10.730;2022-12-22T08:46:32;7.27;;;1.80;;
25982;SDS011;13773;48.868;10.730;2022-12-22T08:48:57;3.40;;;1.83;;
25982;SDS011;13773;48.868;10.730;2022-12-22T08:51:23;5.33;;;1.93;;
25982;SDS011;13773;48.868;10.730;2022-12-22T08:53:49;3.80;;;1.57;;
25982;SDS011;13773;48.868;10.730;2022-12-22T08:56:14;2.33;;;1.40;;
25982;SDS011;13773;48.868;10.730;2022-12-22T08:58:40;4.47;;;1.70;;
25982;SDS011;13773;48.868;10.730;2022-12-22T09:01:06;4.67;;;1.47;;
25982;SDS011;13773;48.868;10.730;2022-12-22T09:03:31;4.50;;;1.53;;
25982;SDS011;13773;48.868;10.730;2022-12-22T09:06:00;4.63;;;1.93;;
25982;SDS011;13773;48.868;10.730;2022-12-22T09:08:26;3.33;;;1.70;;
25982;SDS011;13773;48.868;10.730;2022-12-22T09:10:52;3.67;;;1.43;;
25982;SDS011;13773;48.868;10.730;2022-12-22T09:13:17;6.50;;;1.90;;
25982;SDS011;13773;48.868;10.730;2022-12-22T09:15:43;5.77;;;2.10;;
25982;SDS011;13773;48.868;10.730;2022-12-22T09:18:09;4.73;;;1.70;;
25982;SDS011;13773;48.868;10.730;2022-12-22T09:20:34;6.90;;;1.50;;
25982;SDS011;13773;48.868;10.730;2022-12-22T09:23:00;4.47;;;1.60;;
25982;SDS011;13773;48.868;10.730;2022-12-22T09:25:26;11.90;;;2.00;;
25982;SDS011;13773;48.868;10.730;2022-12-22T09:27:51;3.10;;;1.27;;
25982;SDS011;13773;48.868;10.730;2022-12-22T09:30:17;6.43;;;1.83;;
25982;SDS011;13773;48.868;10.730;2022-12-22T09:32:43;6.83;;;2.57;;
25982;SDS011;13773;48.868;10.730;2022-12-22T09:35:08;3.07;;;1.40;;
25982;SDS011;13773;48.868;10.730;2022-12-22T09:37:34;5.63;;;1.73;;
25982;SDS011;13773;48.868;10.730;2022-12-22T09:39:59;3.77;;;1.47;;
25982;SDS011;13773;48.868;10.730;2022-12-22T09:42:25;3.13;;;1.33;;
25982;SDS011;13773;48.868;10.730;2022-12-22T09:44:52;5.57;;;1.70;;
25982;SDS011;13773;48.868;10.730;2022-12-22T09:47:23;3.70;;;1.30;;
25982;SDS011;13773;48.868;10.730;2022-12-22T09:49:57;5.07;;;1.63;;
25982;SDS011;13773;48.868;10.730;2022-12-22T09:52:27;2.90;;;1.30;;
25982;SDS011;13773;48.868;10.730;2022-12-22T09:54:58;1.97;;;1.20;;
25982;SDS011;13773;48.868;10.730;2022-12-22T09:57:28;4.17;;;0.90;;
25982;SDS011;13773;48.868;10.730;2022-12-22T09:59:56;1.93;;;1.03;;
25982;SDS011;13773;48.868;10.730;2022-12-22T10:02:32;3.70;;;1.40;;
25982;SDS011;13773;48.868;10.730;2022-12-22T10:08:12;5.37;;;1.53;;
25982;SDS011;13773;48.868;10.730;2022-12-22T10:10:42;5.03;;;1.23;;
25982;SDS011;13773;48.868;10.730;2022-12-22T10:13:17;4.60;;;1.40;;
25982;SDS011;13773;48.868;10.730;2022-12-22T10:15:43;2.13;;;1.00;;
25982;SDS011;13773;48.868;10.730;2022-12-22T10:20:44;3.13;;;1.20;;
25982;SDS011;13773;48.868;10.730;2022-12-22T10:25:45;3.87;;;1.23;;
25982;SDS011;13773;48.868;10.730;2022-12-22T10:28:27;4.30;;;1.30;;
25982;SDS011;13773;48.868;10.730;2022-12-22T10:33:43;3.87;;;1.73;;
25982;SDS011;13773;48.868;10.730;2022-12-22T10:36:11;2.23;;;1.17;;
25982;SDS011;13773;48.868;10.730;2022-12-22T10:38:57;4.87;;;1.40;;
25982;SDS011;13773;48.868;10.730;2022-12-22T10:41:29;4.17;;;1.90;;
25982;SDS011;13773;48.868;10.730;2022-12-22T10:44:19;5.47;;;1.60;;
25982;SDS011;13773;48.868;10.730;2022-12-22T10:46:51;3.83;;;2.00;;
25982;SDS011;13773;48.868;10.730;2022-12-22T10:49:26;5.60;;;2.00;;
25982;SDS011;13773;48.868;10.730;2022-12-22T10:52:13;6.47;;;1.80;;
25982;SDS011;13773;48.868;10.730;2022-12-22T10:54:45;2.93;;;1.37;;
25982;SDS011;13773;48.868;10.730;2022-12-22T10:59:59;5.33;;;2.53;;
25982;SDS011;13773;48.868;10.730;2022-12-22T11:02:25;4.13;;;1.87;;
25982;SDS011;13773;48.868;10.730;2022-12-22T11:04:54;6.23;;;1.60;;
25982;SDS011;13773;48.868;10.730;2022-12-22T11:07:32;2.10;;;1.60;;
25982;SDS011;13773;48.868;10.730;2022-12-22T11:21:21;5.30;;;1.90;;
25982;SDS011;13773;48.868;10.730;2022-12-22T11:37:46;6.53;;;1.90;;
25982;SDS011;13773;48.868;10.730;2022-12-22T11:48:58;6.10;;;2.10;;
25982;SDS011;13773;48.868;10.730;2022-12-22T12:02:40;7.93;;;2.53;;
25982;SDS011;13773;48.868;10.730;2022-12-22T12:10:56;6.13;;;2.70;;
25982;SDS011;13773;48.868;10.730;2022-12-22T12:22:04;6.13;;;1.90;;
25982;SDS011;13773;48.868;10.730;2022-12-22T12:30:16;7.27;;;2.60;;
25982;SDS011;13773;48.868;10.730;2022-12-22T12:32:49;7.10;;;1.60;;
25982;SDS011;13773;48.868;10.730;2022-12-22T12:37:49;4.60;;;1.90;;
25982;SDS011;13773;48.868;10.730;2022-12-22T12:43:01;6.13;;;1.90;;
25982;SDS011;13773;48.868;10.730;2022-12-22T12:45:38;9.27;;;2.37;;
25982;SDS011;13773;48.868;10.730;2022-12-22T12:48:34;9.03;;;2.43;;
25982;SDS011;13773;48.868;10.730;2022-12-22T12:51:01;8.60;;;2.30;;
25982;SDS011;13773;48.868;10.730;2022-12-22T12:53:27;6.70;;;2.43;;
25982;SDS011;13773;48.868;10.730;2022-12-22T12:55:55;5.37;;;2.40;;
25982;SDS011;13773;48.868;10.730;2022-12-22T13:03:43;8.67;;;2.27;;
25982;SDS011;13773;48.868;10.730;2022-12-22T13:06:10;3.97;;;2.30;;
25982;SDS011;13773;48.868;10.730;2022-12-22T13:09:16;6.63;;;2.63;;
25982;SDS011;13773;48.868;10.730;2022-12-22T13:11:49;9.23;;;2.60;;
25982;SDS011;13773;48.868;10.730;2022-12-22T13:17:31;9.97;;;3.00;;
25982;SDS011;13773;48.868;10.730;2022-12-22T13:20:04;8.33;;;3.17;;
25982;SDS011;13773;48.868;10.730;2022-12-22T13:22:35;6.00;;;2.50;;
25982;SDS011;13773;48.868;10.730;2022-12-22T13:25:01;7.10;;;2.90;;
25982;SDS011;13773;48.868;10.730;2022-12-22T13:27:27;12.70;;;3.87;;
25982;SDS011;13773;48.868;10.730;2022-12-22T13:29:55;9.47;;;3.30;;
25982;SDS011;13773;48.868;10.730;2022-12-22T13:32:32;6.23;;;2.43;;
25982;SDS011;13773;48.868;10.730;2022-12-22T13:35:05;8.20;;;2.87;;
25982;SDS011;13773;48.868;10.730;2022-12-22T13:37:49;5.80;;;2.07;;
25982;SDS011;13773;48.868;10.730;2022-12-22T13:40:19;5.73;;;2.17;;
25982;SDS011;13773;48.868;10.730;2022-12-22T13:42:53;5.27;;;1.93;;
25982;SDS011;13773;48.868;10.730;2022-12-22T13:47:57;8.80;;;3.10;;
25982;SDS011;13773;48.868;10.730;2022-12-22T13:50:30;8.70;;;3.30;;
25982;SDS011;13773;48.868;10.730;2022-12-22T13:53:01;11.27;;;3.30;;
25982;SDS011;13773;48.868;10.730;2022-12-22T13:55:32;10.97;;;2.97;;
25982;SDS011;13773;48.868;10.730;2022-12-22T13:58:22;7.20;;;2.70;;
25982;SDS011;13773;48.868;10.730;2022-12-22T14:01:02;9.87;;;2.83;;
25982;SDS011;13773;48.868;10.730;2022-12-22T14:03:37;7.70;;;3.33;;
25982;SDS011;13773;48.868;10.730;2022-12-22T14:06:20;9.70;;;3.27;;
25982;SDS011;13773;48.868;10.730;2022-12-22T14:08:51;8.50;;;2.97;;
25982;SDS011;13773;48.868;10.730;2022-12-22T14:11:17;7.67;;;3.47;;
25982;SDS011;13773;48.868;10.730;2022-12-22T14:13:44;6.53;;;3.20;;
25982;SDS011;13773;48.868;10.730;2022-12-22T14:16:12;5.37;;;2.27;;
25982;SDS011;13773;48.868;10.730;2022-12-22T14:18:39;8.30;;;2.57;;
25982;SDS011;13773;48.868;10.730;2022-12-22T14:21:06;4.73;;;2.30;;
25982;SDS011;13773;48.868;10.730;2022-12-22T14:23:34;7.60;;;4.07;;
25982;SDS011;13773;48.868;10.730;2022-12-22T14:26:04;9.80;;;6.80;;
25982;SDS011;13773;48.868;10.730;2022-12-22T14:28:33;8.70;;;5.07;;
25982;SDS011;13773;48.868;10.730;2022-12-22T14:31:06;7.67;;;4.73;;
25982;SDS011;13773;48.868;10.730;2022-12-22T14:33:36;10.73;;;7.00;;
25982;SDS011;13773;48.868;10.730;2022-12-22T14:36:21;10.60;;;6.33;;
25982;SDS011;13773;48.868;10.730;2022-12-22T14:38:49;12.17;;;6.90;;
25982;SDS011;13773;48.868;10.730;2022-12-22T14:41:26;7.40;;;4.20;;
25982;SDS011;13773;48.868;10.730;2022-12-22T14:46:43;6.23;;;4.50;;
25982;SDS011;13773;48.868;10.730;2022-12-22T14:49:13;8.57;;;4.33;;
25982;SDS011;13773;48.868;10.730;2022-12-22T14:51:41;5.97;;;4.23;;
25982;SDS011;13773;48.868;10.730;2022-12-22T14:54:20;7.40;;;4.43;;
25982;SDS011;13773;48.868;10.730;2022-12-22T14:56:50;7.67;;;4.20;;
25982;SDS011;13773;48.868;10.730;2022-12-22T14:59:24;8.43;;;3.50;;
25982;SDS011;13773;48.868;10.730;2022-12-22T15:01:59;9.57;;;4.07;;
25982;SDS011;13773;48.868;10.730;2022-12-22T15:04:26;7.50;;;3.03;;
25982;SDS011;13773;48.868;10.730;2022-12-22T15:07:02;8.97;;;3.63;;
25982;SDS011;13773;48.868;10.730;2022-12-22T15:09:40;10.30;;;3.50;;
25982;SDS011;13773;48.868;10.730;2022-12-22T15:12:09;6.23;;;3.53;;
25982;SDS011;13773;48.868;10.730;2022-12-22T15:14:42;5.40;;;3.07;;
25982;SDS011;13773;48.868;10.730;2022-12-22T15:17:18;9.27;;;3.23;;
25982;SDS011;13773;48.868;10.730;2022-12-22T15:19:46;7.97;;;3.70;;
25982;SDS011;13773;48.868;10.730;2022-12-22T15:22:12;7.50;;;2.90;;
25982;SDS011;13773;48.868;10.730;2022-12-22T15:24:38;6.77;;;2.03;;
25982;SDS011;13773;48.868;10.730;2022-12-22T15:27:04;7.23;;;2.83;;
25982;SDS011;13773;48.868;10.730;2022-12-22T15:29:30;5.40;;;2.80;;
25982;SDS011;13773;48.868;10.730;2022-12-22T15:31:55;8.63;;;2.63;;
25982;SDS011;13773;48.868;10.730;2022-12-22T15:34:22;12.40;;;3.20;;
25982;SDS011;13773;48.868;10.730;2022-12-22T15:36:49;8.77;;;2.70;;
25982;SDS011;13773;48.868;10.730;2022-12-22T15:39:16;8.30;;;3.17;;
25982;SDS011;13773;48.868;10.730;2022-12-22T15:41:43;7.27;;;2.97;;
25982;SDS011;13773;48.868;10.730;2022-12-22T15:44:09;6.77;;;3.10;;
25982;SDS011;13773;48.868;10.730;2022-12-22T15:46:36;5.97;;;3.27;;
25982;SDS011;13773;48.868;10.730;2022-12-22T15:49:04;12.30;;;3.63;;
25982;SDS011;13773;48.868;10.730;2022-12-22T15:51:36;9.03;;;3.47;;
25982;SDS011;13773;48.868;10.730;2022-12-22T15:54:02;8.63;;;3.20;;
25982;SDS011;13773;48.868;10.730;2022-12-22T15:56:29;9.70;;;3.27;;
25982;SDS011;13773;48.868;10.730;2022-12-22T15:58:57;9.37;;;3.03;;
25982;SDS011;13773;48.868;10.730;2022-12-22T16:01:25;7.87;;;3.20;;
25982;SDS011;13773;48.868;10.730;2022-12-22T16:03:50;12.00;;;3.40;;
25982;SDS011;13773;48.868;10.730;2022-12-22T16:06:16;7.20;;;3.10;;
25982;SDS011;13773;48.868;10.730;2022-12-22T16:08:48;7.63;;;3.20;;
25982;SDS011;13773;48.868;10.730;2022-12-22T16:11:17;11.73;;;4.13;;
25982;SDS011;13773;48.868;10.730;2022-12-22T16:13:43;10.20;;;3.33;;
25982;SDS011;13773;48.868;10.730;2022-12-22T16:16:10;15.17;;;4.53;;
25982;SDS011;13773;48.868;10.730;2022-12-22T16:18:36;12.27;;;4.33;;
25982;SDS011;13773;48.868;10.730;2022-12-22T16:21:06;8.27;;;3.13;;
25982;SDS011;13773;48.868;10.730;2022-12-22T16:23:38;9.23;;;3.00;;
25982;SDS011;13773;48.868;10.730;2022-12-22T16:26:06;12.23;;;3.90;;
25982;SDS011;13773;48.868;10.730;2022-12-22T16:28:34;10.90;;;3.93;;
25982;SDS011;13773;48.868;10.730;2022-12-22T16:31:00;12.17;;;4.57;;
25982;SDS011;13773;48.868;10.730;2022-12-22T16:33:25;11.80;;;5.50;;
25982;SDS011;13773;48.868;10.730;2022-12-22T16:35:51;13.53;;;5.07;;
25982;SDS011;13773;48.868;10.730;2022-12-22T16:38:17;10.80;;;5.50;;
25982;SDS011;13773;48.868;10.730;2022-12-22T16:40:43;10.33;;;4.30;;
25982;SDS011;13773;48.868;10.730;2022-12-22T16:45:42;8.70;;;3.60;;
25982;SDS011;13773;48.868;10.730;2022-12-22T16:48:10;14.67;;;3.83;;
25982;SDS011;13773;48.868;10.730;2022-12-22T16:50:40;9.47;;;2.73;;
25982;SDS011;13773;48.868;10.730;2022-12-22T16:53:09;11.33;;;3.20;;
25982;SDS011;13773;48.868;10.730;2022-12-22T16:55:35;7.13;;;3.17;;
25982;SDS011;13773;48.868;10.730;2022-12-22T16:58:01;7.87;;;2.67;;
25982;SDS011;13773;48.868;10.730;2022-12-22T17:00:28;7.90;;;3.37;;
25982;SDS011;13773;48.868;10.730;2022-12-22T17:02:59;7.67;;;2.73;;
25982;SDS011;13773;48.868;10.730;2022-12-22T17:05:33;7.13;;;2.43;;
25982;SDS011;13773;48.868;10.730;2022-12-22T17:08:02;7.90;;;3.07;;
25982;SDS011;13773;48.868;10.730;2022-12-22T17:10:30;7.53;;;2.87;;
25982;SDS011;13773;48.868;10.730;2022-12-22T17:12:57;8.70;;;3.20;;
25982;SDS011;13773;48.868;10.730;2022-12-22T17:15:24;6.40;;;2.70;;
25982;SDS011;13773;48.868;10.730;2022-12-22T17:17:50;9.43;;;2.20;;
25982;SDS011;13773;48.868;10.730;2022-12-22T17:20:17;7.47;;;2.40;;
25982;SDS011;13773;48.868;10.730;2022-12-22T17:22:46;8.53;;;3.43;;
25982;SDS011;13773;48.868;10.730;2022-12-22T17:25:26;6.30;;;2.77;;
25982;SDS011;13773;48.868;10.730;2022-12-22T17:27:54;10.77;;;3.10;;
25982;SDS011;13773;48.868;10.730;2022-12-22T17:30:22;9.47;;;2.63;;